Cincinnati, OH

4:53 PM EST on February 19, 2017 (GMT -0500)
Norwood | | Change Station

Elev 620 ft 39.15 °N, 84.45 °W | Updated 34 seconds ago

Clear
Clear
61.9 °F
Feels Like 61.9 °F
N
2.0
Wind Variable Wind from SSW

Today
High -- | Low -- °F
--% Chance of Precip.
Yesterday
High -- | Low -- °F
Precip. -- in
Pressure 30.12 in
Visibility 10.0 miles
Clouds Clear
Dew Point 48 °F
Humidity 61%
Rainfall 0.00 in
Snow Depth Not available.
7:23 AM 6:19 PM
Last Quarter, 40% visible
METAR KLUK 192053Z 24005KT 10SM CLR 15/09 A3011 RMK AO2 SLP197 T01500089 53001
Pressure 30.12 in
Visibility 10.0 miles
Clouds Clear
Dew Point 48 °F
Humidity 61%
Rainfall 0.00 in
Snow Depth Not available.
7:23 AM 6:19 PM
Last Quarter, 40% visible
METAR KLUK 192053Z 24005KT 10SM CLR 15/09 A3011 RMK AO2 SLP197 T01500089 53001

Get Your Daily Forecast Email!

Thanks for signing up!

Be on the lookout for a verification email in your inbox.

You'll start receiving the daily forecast at 8 AM.

×

10-Day Weather Forecast

Almanac

Astronomy

Feb. 19, 2017 Rise Set
Actual Time
Civil Twilight
Nautical Twilight
Astronomical Twilight
Moon
Length of Visible Light
Length of Day
Tomorrow will be .
, % of the Moon is Illuminated

Today's Extremes

State Highs State Lows

Community

WunderPhotos

Upload Photos

1,962,540 photos uploaded!

WunderBlog® & News

Nearby

Air Quality

  Air Quality AQ Index Pollutant
Not available.

Snow Depth

Station Depth Elevation

Earthquake Activity

City Distance Mag. Time & Date
Minimum magnitude displayed is 2.5.

Coastal Water Temperatures

Place Temperature

Stations

Nearby Weather Stations

Station Location Temp. Windchill Dew Point Humidity Wind Precip. Elev Updated Type
                   

Watches & Warnings

There are currently no watches in effect.